• Join FlightAware (Why Join?)
  • Login
  • US Flag 
01:08AM EDT


 

Airport Tracker/Info


-or-


 

Live Flight TrackerFlight Track Log ✈ SWA3227 ✈ 13-Apr-2013 ✈ KMDW - KIAD

Flight Track Log - Related Links

Times and Time Zones

All times are in EDT time to prevent confusion due to time zone crossing. See the SWA3227 flight status page for this flight to view local times or setup timezone preferences in your user account.

Time Position Orientation Groundspeed Altitude Reporting Facility
EDT Latitude Longitude Course Direction KTS MPH feet Rate Location/Type
08:47PM 41.7667 -87.7667 340° North 145 167 1,900  Level Chicago TRACON
08:48PM 41.8000 -87.7833 340° North 213 245 3,500 1,920 Climbing Chicago TRACON
08:49PM 41.8000 -87.7167 90° East 252 290 5,400 2,340 Climbing Chicago TRACON
08:50PM 41.8000 -87.6000 90° East 317 365 8,000 2,820 Climbing Chicago TRACON
08:51PM 41.7864 -87.4731 98° East 334 384 11,700 2,880 Climbing Chicago Center
08:52PM 41.7803 -87.3347 93° East 362 417 14,400 3,240 Climbing Chicago Center
08:53PM 41.7675 -87.1453 95° East 417 480 18,300 3,300 Climbing Chicago Center
08:54PM 41.7628 -86.9817 92° East 435 501 21,200 2,580 Climbing Chicago Center
08:55PM 41.7650 -86.8136 89° East 450 518 23,700 2,220 Climbing Chicago Center
08:56PM 41.7653 -86.6372 90° East 470 541 25,800 2,040 Climbing Chicago Center
08:57PM 41.7669 -86.4536 89° East 491 565 27,900 1,920 Climbing Chicago Center
08:58PM 41.7658 -86.2636 90° East 503 579 29,800 1,740 Climbing Chicago Center
08:59PM 41.7539 -86.0700 95° East 518 596 31,500 1,740 Climbing Chicago Center
09:00PM 41.7403 -85.8744 95° East 525 604 33,400 1,800 Climbing Chicago Center
09:01PM 41.7281 -85.6808 95° East 523 602 35,200 1,620 Climbing Chicago Center
09:02PM 41.7144 -85.4644 95° East 519 597 36,800 1,560 Climbing Chicago Center
09:03PM 41.7003 -85.2767 96° East 514 592 38,400 1,080 Climbing Chicago Center
09:04PM 41.6892 -85.0931 95° East 517 595 39,000 420 Climbing Chicago Center
09:04PM 41.6847 -85.0075 94° East 517 595 39,000  Level Cleveland Center
09:05PM 41.6692 -84.8117 96° East 522 601 39,000  Level Cleveland Center
09:06PM 41.6572 -84.6217 95° East 522 601 39,000  Level Cleveland Center
09:07PM 41.6031 -84.4461 112° Southeast 513 590 39,000  Level Cleveland Center
09:08PM 41.5472 -84.3172 120° Southeast 517 595 39,000  Level Chicago Center
09:08PM 41.5333 -84.2783 115° Southeast 507 583 39,000  Level Cleveland Center
09:09PM 41.4536 -84.0992 121° Southeast 513 590 39,000  Level Cleveland Center
09:10PM 41.3833 -83.9347 120° Southeast 513 590 39,000  Level Cleveland Center
09:11PM 41.3131 -83.7681 119° Southeast 518 596 39,000  Level Cleveland Center
09:12PM 41.2444 -83.6072 120° Southeast 518 596 39,000  Level Cleveland Center
09:13PM 41.1758 -83.4439 119° Southeast 518 596 39,000  Level Cleveland Center
09:14PM 41.1128 -83.2950 119° Southeast 518 596 39,000  Level Cleveland Center
09:15PM 41.0433 -83.1353 120° Southeast 508 585 39,000  Level Cleveland Center
09:17PM 40.9203 -82.8422 119° Southeast 505 581 39,000  Level Indianapolis Center
09:18PM 40.8506 -82.6833 120° Southeast 499 574 39,000  Level Indianapolis Center
09:19PM 40.7800 -82.5231 120° Southeast 501 577 39,000  Level Indianapolis Center
09:20PM 40.7094 -82.3628 120° Southeast 503 579 39,000  Level Indianapolis Center
09:21PM 40.6272 -82.1808 121° Southeast 500 575 39,000  Level Cleveland Center
09:22PM 40.5564 -82.0206 120° Southeast 500 575 39,000  Level Cleveland Center
09:23PM 40.4853 -81.8606 120° Southeast 500 575 39,000  Level Cleveland Center
09:24PM 40.4058 -81.6875 121° Southeast 506 582 39,000  Level Cleveland Center
09:25PM 40.3342 -81.5283 121° Southeast 511 588 39,000  Level Cleveland Center
09:26PM 40.2644 -81.3722 120° Southeast 506 582 39,000  Level Cleveland Center
09:27PM 40.1925 -81.2136 121° Southeast 506 582 39,000  Level Cleveland Center
09:28PM 40.1225 -81.0556 120° Southeast 506 582 39,000 -120 Level Cleveland Center
09:29PM 40.0500 -80.8978 121° Southeast 506 582 38,800 -600 Descending Cleveland Center
09:30PM 39.9753 -80.7375 121° Southeast 506 582 37,800 -900 Descending Cleveland Center
09:31PM 39.9108 -80.5750 117° Southeast 511 588 37,000 -420 Descending Cleveland Center
09:32PM 39.8461 -80.4128 117° Southeast 506 582 37,000  Level Cleveland Center
09:33PM 39.7831 -80.2508 117° Southeast 500 575 37,000 -1,500 Level Cleveland Center
09:35PM 39.6644 -79.9425 116° Southeast 497 572 32,500 -2,220 Descending Washington Center
09:36PM 39.5992 -79.7797 117° Southeast 502 578 30,500 -2,220 Descending Washington Center
09:38PM 39.5361 -79.6172 117° Southeast 507 583 28,100 -1,800 Descending Washington Center
09:38PM 39.4872 -79.4503 111° Southeast 502 578 26,900 -1,800 Descending Washington Center
09:39PM 39.4453 -79.2572 106° East 493 567 24,600 -2,340 Descending Washington Center
09:40PM 39.4150 -79.0892 103° East 493 567 22,300 -2,280 Descending Washington Center
09:41PM 39.3861 -78.9267 103° East 482 555 20,100 -2,400 Descending Washington Center
09:42PM 39.3572 -78.7697 103° East 460 529 17,500 -2,340 Descending Washington Center
09:44PM 39.3297 -78.6183 103° East 443 510 15,500 -2,100 Descending Washington Center
09:44PM 39.3042 -78.4722 103° East 423 487 13,400 -1,920 Descending Washington Center
09:45PM 39.2697 -78.3422 109° East 405 466 11,700 -1,260 Descending Washington Center
09:46PM 39.2139 -78.2331 123° Southeast 375 432 10,900 -1,080 Descending Washington Center
09:47PM 39.1636 -78.1375 124° Southeast 351 404 9,600 -1,260 Descending Washington Center
09:48PM 39.1136 -78.0419 124° Southeast 333 383 8,400 -1,260 Descending Washington Center
09:49PM 39.0675 -77.9550 124° Southeast 319 367 7,100 -1,200 Descending Washington Center
09:50PM 39.0233 -77.8681 123° Southeast 305 351 6,000 -600 Descending Washington Center
09:51PM 38.9789 -77.7867 125° Southeast 285 328 6,000  Level Washington Center
09:52PM 38.9594 -77.6978 106° East 266 306 6,000  Level Washington Center
09:54PM 38.9167 -77.6000 119° Southeast 213 245 6,000 -420 Level Potomac TRACON
09:55PM 38.8667 -77.5833 165° South 202 232 5,100 -1,020 Descending Potomac TRACON
09:56PM 38.8167 -77.5667 165° South 193 222 4,000 -1,260 Descending Potomac TRACON
09:57PM 38.8000 -77.5167 113° Southeast 167 192 2,500 -840 Descending Potomac TRACON
09:58PM 38.8333 -77.4667 49° Northeast 150 173 2,200 -420 Descending Potomac TRACON
09:59PM 38.8667 -77.4667 360° North 143 165 1,800 -660 Descending Potomac TRACON
10:00PM 38.9000 -77.4667 360° North 143 165 1,000 -840 Descending Potomac TRACON
10:02PM 38.9333 -77.4500 165° South  Level FlightAware Approximate
10:09PM 38.9474 -77.4599 165° South  Level Estimated
10:10PM 38.9474 -77.4599 165° South  Level Estimated